Wells Aircraft, Inc. Branson West
(417) 272-3921
393 Aero Drive
Branson West, MO 65737
(change)

Location

Wells Aircraft rentals are located at the FBO of Branson West Airport (KFWB), in West Branson, Missouri.

Wells Aircraft, Inc.
393 Aero Drive
Branson West, MO 65737
Map
Wells Location at KFWB

Quick Links


AirNav Information
(KFWB)

Branson West Weather

Additional Resources

Be prepared for the weather with these aviation resources.

KBBG 200855Z AUTO 00000KT 3/4SM BR OVC002 00/00 A2982 RMK AO2                KBBG 200855Z AUTO 00000KT 3/4SM BR OVC002 00/00 A2982 RMK AO2                KBBG 200855Z AUTO 00000KT 3/4SM BR OVC002 00/00 A2982 RMK AO2                KBBG 200855Z AUTO 00000KT 3/4SM BR OVC002 00/00 A2982 RMK AO2                KBBG 200855Z AUTO 00000KT 3/4SM BR OVC002 00/00 A2982 RMK AO2                KBBG 200855Z AUTO 00000KT 3/4SM BR OVC002 00/00 A2982 RMK AO2                
 
 
Cirrus Aircraft